createdAt,value
2023-04-17T00:00:59.999Z,61.54
2023-04-17T00:03:27.977Z,62.15
2023-04-17T00:05:56.816Z,61.93
2023-04-17T00:08:26.209Z,63.06
2023-04-17T00:11:06.502Z,62.22
2023-04-17T00:13:35.578Z,62.83
2023-04-17T00:16:03.846Z,62.83
2023-04-17T00:18:31.789Z,63.68
2023-04-17T00:20:59.650Z,62.53
2023-04-17T00:23:29.714Z,62.51
2023-04-17T00:25:57.638Z,62.65
2023-04-17T00:28:25.700Z,61.80
2023-04-17T00:30:53.647Z,62.41
2023-04-17T00:33:21.569Z,61.65
2023-04-17T00:35:49.498Z,61.19
2023-04-17T00:38:17.355Z,61.71
2023-04-17T00:40:46.802Z,61.11
2023-04-17T00:43:14.841Z,61.73
2023-04-17T00:45:43.162Z,61.26
2023-04-17T00:48:13.235Z,61.81
2023-04-17T00:50:41.773Z,61.85
2023-04-17T00:53:09.965Z,62.30
2023-04-17T00:55:40.646Z,61.94
2023-04-17T00:58:10.497Z,61.75
2023-04-17T01:00:38.803Z,62.71
2023-04-17T01:03:07.081Z,63.33
2023-04-17T01:05:38.325Z,62.92
2023-04-17T01:08:06.627Z,62.82
2023-04-17T01:10:34.629Z,62.17
2023-04-17T01:13:03.424Z,61.67
2023-04-17T01:15:33.894Z,62.89
2023-04-17T01:18:02.087Z,62.76
2023-04-17T01:20:31.094Z,62.78
2023-04-17T01:22:59.437Z,62.96
2023-04-17T01:25:29.765Z,62.28
2023-04-17T01:27:58.000Z,61.07
2023-04-17T01:30:27.177Z,62.38
2023-04-17T01:32:58.612Z,62.32
2023-04-17T01:35:26.544Z,61.86
2023-04-17T01:37:56.831Z,61.36
2023-04-17T01:40:24.786Z,60.68
2023-04-17T01:42:54.243Z,61.36
2023-04-17T01:45:22.399Z,61.96
2023-04-17T01:47:51.573Z,60.95
2023-04-17T01:50:19.660Z,61.65
2023-04-17T01:52:47.613Z,61.95
2023-04-17T01:55:15.483Z,61.48
2023-04-17T01:57:44.002Z,60.72
2023-04-17T02:00:14.772Z,60.62
2023-04-17T02:02:44.196Z,62.21
2023-04-17T02:05:12.221Z,61.00
2023-04-17T02:07:40.116Z,60.77
2023-04-17T02:10:09.232Z,60.65
2023-04-17T02:12:37.892Z,60.72
2023-04-17T02:15:06.799Z,60.87
2023-04-17T02:17:36.119Z,60.66
2023-04-17T02:20:07.024Z,60.69
2023-04-17T02:22:34.922Z,61.10
2023-04-17T02:25:02.956Z,61.32
2023-04-17T02:27:31.165Z,60.08
2023-04-17T02:29:59.187Z,59.64
2023-04-17T02:32:28.506Z,60.30
2023-04-17T02:34:57.775Z,61.02
2023-04-17T02:37:25.703Z,60.89
2023-04-17T02:39:55.514Z,60.60
2023-04-17T02:42:23.448Z,61.12
2023-04-17T02:44:51.349Z,61.10
2023-04-17T02:47:19.540Z,59.60
2023-04-17T02:49:47.483Z,59.42
2023-04-17T02:52:16.722Z,60.84
2023-04-17T02:54:44.580Z,60.55
2023-04-17T02:57:13.417Z,61.04
2023-04-17T02:59:41.339Z,61.46
2023-04-17T03:02:09.422Z,61.38
2023-04-17T03:04:38.930Z,61.07
2023-04-17T03:07:09.220Z,60.96
2023-04-17T03:09:38.859Z,61.58
2023-04-17T03:12:07.165Z,60.61
2023-04-17T03:14:35.043Z,60.94
2023-04-17T03:17:02.945Z,60.36
2023-04-17T03:19:30.931Z,60.10
2023-04-17T03:21:58.841Z,59.85
2023-04-17T03:24:26.737Z,59.07
2023-04-17T03:26:56.135Z,60.08
2023-04-17T03:29:24.345Z,59.57
2023-04-17T03:31:52.556Z,59.76
2023-04-17T03:34:21.651Z,59.97
2023-04-17T03:36:50.798Z,60.50
2023-04-17T03:39:18.766Z,60.17
2023-04-17T03:41:47.077Z,60.21
2023-04-17T03:44:17.325Z,60.94
2023-04-17T03:46:46.061Z,59.85
2023-04-17T03:49:14.316Z,59.88
2023-04-17T03:51:43.493Z,60.20
2023-04-17T03:54:17.069Z,60.18
2023-04-17T03:56:47.135Z,60.69
2023-04-17T03:59:16.516Z,60.88
2023-04-17T04:01:46.872Z,60.87
2023-04-17T04:04:19.693Z,60.67
2023-04-17T04:06:49.433Z,60.19
2023-04-17T04:09:20.445Z,60.19
2023-04-17T04:11:48.272Z,60.26
2023-04-17T04:14:17.736Z,59.15
2023-04-17T04:16:48.436Z,59.94
2023-04-17T04:19:16.300Z,60.37
2023-04-17T04:21:45.383Z,59.97
2023-04-17T04:24:15.172Z,60.90
2023-04-17T04:26:44.028Z,60.83
2023-04-17T04:29:13.862Z,60.99
2023-04-17T04:31:57.464Z,61.29
2023-04-17T04:34:30.914Z,61.32
2023-04-17T04:36:58.771Z,61.60
2023-04-17T04:39:47.545Z,61.07
2023-04-17T04:42:22.138Z,60.84
2023-04-17T04:44:58.082Z,60.70
2023-04-17T04:47:30.911Z,61.76
2023-04-17T04:49:58.911Z,61.65
2023-04-17T04:52:27.993Z,61.27
2023-04-17T04:54:59.691Z,60.19
2023-04-17T04:57:27.687Z,60.90
2023-04-17T04:59:59.676Z,61.42
2023-04-17T05:02:35.108Z,61.18
2023-04-17T05:05:04.424Z,61.18
2023-04-17T05:07:34.841Z,62.50
2023-04-17T05:10:04.708Z,60.91
2023-04-17T05:12:36.212Z,61.62
2023-04-17T05:15:08.064Z,61.38
2023-04-17T05:17:37.810Z,60.91
2023-04-17T05:20:09.215Z,61.56
2023-04-17T05:22:45.323Z,61.50
2023-04-17T05:25:16.275Z,61.74
2023-04-17T05:27:44.352Z,61.99
2023-04-17T05:30:14.697Z,61.71
2023-04-17T05:32:46.665Z,61.07
2023-04-17T05:35:35.185Z,60.59
2023-04-17T05:38:04.013Z,60.60
2023-04-17T05:40:34.036Z,60.23
2023-04-17T05:43:07.700Z,60.39
2023-04-17T05:45:36.265Z,60.34
2023-04-17T05:48:05.662Z,59.77
2023-04-17T05:50:33.658Z,60.21
2023-04-17T05:53:02.150Z,59.32
2023-04-17T05:55:34.477Z,59.14
2023-04-17T05:58:16.867Z,60.23
2023-04-17T06:00:52.859Z,60.54
2023-04-17T06:03:23.097Z,61.04
2023-04-17T06:05:58.390Z,60.05
2023-04-17T06:08:28.095Z,59.71
2023-04-17T06:10:56.528Z,59.79
2023-04-17T06:13:24.441Z,59.31
2023-04-17T06:15:52.878Z,58.50
2023-04-17T06:18:22.168Z,58.65
2023-04-17T06:20:50.577Z,60.06
2023-04-17T06:23:18.482Z,59.30
2023-04-17T06:25:46.367Z,58.74
2023-04-17T06:28:14.335Z,59.48
2023-04-17T06:30:42.403Z,58.89
2023-04-17T06:33:10.498Z,58.28
2023-04-17T06:35:40.791Z,58.45
2023-04-17T06:38:28.965Z,57.51
2023-04-17T06:40:57.497Z,57.16
2023-04-17T06:43:25.493Z,57.55
2023-04-17T06:45:54.614Z,57.99
2023-04-17T06:48:22.587Z,57.52
2023-04-17T06:50:51.930Z,57.84
2023-04-17T06:53:20.134Z,58.44
2023-04-17T06:55:48.095Z,56.82
2023-04-17T06:58:16.029Z,57.25
2023-04-17T07:00:44.030Z,57.56
2023-04-17T07:03:13.933Z,56.68
2023-04-17T07:05:44.481Z,56.07
2023-04-17T07:08:15.957Z,56.28
2023-04-17T07:10:44.076Z,55.21
2023-04-17T07:13:12.171Z,55.41
2023-04-17T07:15:40.069Z,55.95
2023-04-17T07:18:08.074Z,55.47
2023-04-17T07:20:36.071Z,54.54
2023-04-17T07:23:04.003Z,53.55
2023-04-17T07:25:33.297Z,54.44
2023-04-17T07:28:02.122Z,53.47
2023-04-17T07:30:31.807Z,53.27
2023-04-17T07:32:59.964Z,54.32
2023-04-17T07:35:28.021Z,54.49
2023-04-17T07:37:59.056Z,53.81
2023-04-17T07:40:27.118Z,53.48
2023-04-17T07:42:56.881Z,53.07
2023-04-17T07:45:24.899Z,53.10
2023-04-17T07:47:53.149Z,51.56
2023-04-17T07:50:21.708Z,51.84
2023-04-17T07:52:49.725Z,50.72
2023-04-17T07:55:17.797Z,51.64
2023-04-17T07:57:46.973Z,51.29
2023-04-17T08:00:16.781Z,51.10
2023-04-17T08:02:44.926Z,50.02
2023-04-17T08:05:13.022Z,49.55
2023-04-17T08:07:41.200Z,50.04
2023-04-17T08:10:09.817Z,50.75
2023-04-17T08:12:37.825Z,50.08
2023-04-17T08:15:06.439Z,49.83
2023-04-17T08:17:35.810Z,49.96
2023-04-17T08:20:07.821Z,48.04
2023-04-17T08:22:40.168Z,46.77
2023-04-17T08:25:09.694Z,47.65
2023-04-17T08:27:37.838Z,47.80
2023-04-17T08:30:09.162Z,48.85
2023-04-17T08:32:40.944Z,46.43
2023-04-17T08:35:11.360Z,46.10
2023-04-17T08:37:39.635Z,46.70
2023-04-17T08:40:09.392Z,45.76
2023-04-17T08:42:38.679Z,46.07
2023-04-17T08:45:09.620Z,43.34
2023-04-17T08:47:38.100Z,44.36
2023-04-17T08:50:15.499Z,44.11
2023-04-17T08:52:44.610Z,44.01
2023-04-17T08:55:13.959Z,43.75
2023-04-17T08:57:58.630Z,42.42
2023-04-17T09:00:28.289Z,42.06
2023-04-17T09:02:57.688Z,40.18
2023-04-17T09:05:30.280Z,40.55
2023-04-17T09:08:09.997Z,41.03
2023-04-17T09:10:39.267Z,41.52
2023-04-17T09:13:08.497Z,40.82
2023-04-17T09:15:37.827Z,40.88
2023-04-17T09:18:05.846Z,40.46
2023-04-17T09:20:49.820Z,39.18
2023-04-17T09:23:17.760Z,38.76
2023-04-17T09:25:46.214Z,37.77
2023-04-17T09:28:16.085Z,37.75
2023-04-17T09:30:44.350Z,37.11
2023-04-17T09:33:13.008Z,38.98
2023-04-17T09:35:42.726Z,37.70
2023-04-17T09:38:11.783Z,38.59
2023-04-17T09:40:41.264Z,37.46
2023-04-17T09:43:10.991Z,37.69
2023-04-17T09:45:42.773Z,37.44
2023-04-17T09:48:14.442Z,36.70
2023-04-17T09:50:44.495Z,36.96
2023-04-17T09:53:13.876Z,35.90
2023-04-17T09:55:43.485Z,36.95
2023-04-17T09:58:12.293Z,38.01
2023-04-17T10:00:42.730Z,36.65
2023-04-17T10:03:11.400Z,36.34
2023-04-17T10:05:39.843Z,36.63
2023-04-17T10:08:09.261Z,36.32
2023-04-17T10:10:37.251Z,35.42
2023-04-17T10:13:09.225Z,36.92
2023-04-17T10:15:39.454Z,37.13
2023-04-17T10:18:28.305Z,37.11
2023-04-17T10:20:56.747Z,35.70
2023-04-17T10:23:31.435Z,36.37
2023-04-17T10:26:45.375Z,35.31
2023-04-17T10:29:13.717Z,35.18
2023-04-17T10:32:17.370Z,35.38
2023-04-17T10:34:45.342Z,35.38
2023-04-17T10:37:15.596Z,35.62
2023-04-17T10:40:01.792Z,34.85
2023-04-17T10:42:32.775Z,35.01
2023-04-17T10:45:05.922Z,34.14
2023-04-17T10:47:34.670Z,35.04
2023-04-17T10:50:04.554Z,35.60
2023-04-17T10:52:41.957Z,33.26
2023-04-17T10:55:14.486Z,32.70
2023-04-17T10:57:56.953Z,32.35
2023-04-17T11:00:36.835Z,33.67
2023-04-17T11:03:06.757Z,33.64
2023-04-17T11:05:36.591Z,33.43
2023-04-17T11:08:04.691Z,34.15
2023-04-17T11:10:36.514Z,34.22
2023-04-17T11:13:04.486Z,31.05
2023-04-17T11:15:34.173Z,30.17
2023-04-17T11:18:03.943Z,29.43
2023-04-17T11:20:34.053Z,30.20
2023-04-17T11:23:02.742Z,30.04
2023-04-17T11:25:33.589Z,30.37
2023-04-17T11:28:04.340Z,27.94
2023-04-17T11:30:34.136Z,29.36
2023-04-17T11:33:02.936Z,27.62
2023-04-17T11:35:33.522Z,28.97
2023-04-17T11:38:12.941Z,26.91
2023-04-17T11:40:45.566Z,28.31
2023-04-17T11:43:15.101Z,28.47
2023-04-17T11:45:44.264Z,28.68
2023-04-17T11:48:13.124Z,27.75
2023-04-17T11:50:42.648Z,27.20
2023-04-17T11:53:14.219Z,26.40
2023-04-17T11:55:42.136Z,24.12
2023-04-17T11:58:11.852Z,23.97
2023-04-17T12:00:42.979Z,23.54
2023-04-17T12:03:33.919Z,22.74
2023-04-17T12:06:02.491Z,21.35
2023-04-17T12:08:31.512Z,20.39
2023-04-17T12:10:59.607Z,19.97
2023-04-17T12:13:27.564Z,20.21
2023-04-17T12:15:56.973Z,20.25
2023-04-17T12:18:24.895Z,21.88
2023-04-17T12:20:52.732Z,22.21
2023-04-17T12:23:20.685Z,24.12
2023-04-17T12:25:48.628Z,24.16
2023-04-17T12:28:17.088Z,22.74
2023-04-17T12:30:44.982Z,21.53
2023-04-17T12:33:14.297Z,23.12
2023-04-17T12:35:42.142Z,20.99
2023-04-17T12:38:10.085Z,22.01
2023-04-17T12:40:39.136Z,22.03
2023-04-17T12:43:08.374Z,20.94
2023-04-17T12:45:37.176Z,21.43
2023-04-17T12:48:05.524Z,20.71
2023-04-17T12:50:40.517Z,21.09
2023-04-17T12:53:08.333Z,21.76
2023-04-17T12:55:38.569Z,21.33
2023-04-17T12:58:07.002Z,21.20
2023-04-17T13:00:35.351Z,23.37
2023-04-17T13:03:03.569Z,25.72
2023-04-17T13:05:32.144Z,27.07
2023-04-17T13:08:01.643Z,25.35
2023-04-17T13:10:29.878Z,24.32
2023-04-17T13:12:57.800Z,22.19
2023-04-17T13:15:26.303Z,22.19
2023-04-17T13:17:54.347Z,21.33
2023-04-17T13:20:22.425Z,21.49
2023-04-17T13:22:50.502Z,20.88
2023-04-17T13:25:19.937Z,20.44
2023-04-17T13:27:47.974Z,22.27
2023-04-17T13:30:16.183Z,24.09
2023-04-17T13:32:44.398Z,26.12
2023-04-17T13:35:13.447Z,25.89
2023-04-17T13:37:42.312Z,25.14
2023-04-17T13:40:11.833Z,26.35
2023-04-17T13:42:41.143Z,26.74
2023-04-17T13:45:09.828Z,26.88
2023-04-17T13:47:37.750Z,20.08
2023-04-17T13:50:07.146Z,20.22
2023-04-17T13:52:34.997Z,19.63
2023-04-17T13:55:02.859Z,18.51
2023-04-17T13:57:30.635Z,20.03
2023-04-17T13:59:59.802Z,16.97
2023-04-17T14:02:27.803Z,16.89
2023-04-17T14:04:55.973Z,17.19
2023-04-17T14:07:23.929Z,15.94
2023-04-17T14:09:51.959Z,15.40
2023-04-17T14:12:21.751Z,13.55
2023-04-17T14:14:49.640Z,14.61
2023-04-17T14:17:18.976Z,17.78
2023-04-17T14:19:47.087Z,19.67
2023-04-17T14:22:14.915Z,22.42
2023-04-17T14:24:43.211Z,21.82
2023-04-17T14:27:11.114Z,18.19
2023-04-17T14:29:39.037Z,16.19
2023-04-17T14:32:07.209Z,15.65
2023-04-17T14:34:36.438Z,19.15
2023-04-17T14:37:04.328Z,21.07
2023-04-17T14:39:32.910Z,21.49
2023-04-17T14:42:02.106Z,20.17
2023-04-17T14:44:30.305Z,16.89
2023-04-17T14:46:58.468Z,14.83
2023-04-17T14:49:26.399Z,16.33
2023-04-17T14:51:55.894Z,19.54
2023-04-17T14:54:23.768Z,20.85
2023-04-17T14:56:51.731Z,23.66
2023-04-17T14:59:19.751Z,23.25
2023-04-17T15:01:47.834Z,23.94
2023-04-17T15:04:16.424Z,22.55
2023-04-17T15:06:44.332Z,21.86
2023-04-17T15:09:13.736Z,19.31
2023-04-17T15:11:41.733Z,20.08
2023-04-17T15:14:09.604Z,19.88
2023-04-17T15:16:37.419Z,19.13
2023-04-17T15:19:05.319Z,21.75
2023-04-17T15:21:33.390Z,21.62
2023-04-17T15:24:01.193Z,23.34
2023-04-17T15:26:30.392Z,22.75
2023-04-17T15:28:58.151Z,22.68
2023-04-17T15:31:26.161Z,23.00
2023-04-17T15:33:54.001Z,24.31
2023-04-17T15:36:21.845Z,21.80
2023-04-17T15:38:49.786Z,20.78
2023-04-17T15:41:17.816Z,22.45
2023-04-17T15:43:47.073Z,21.47
2023-04-17T15:46:14.978Z,21.84
2023-04-17T15:48:42.827Z,22.36
2023-04-17T15:51:10.665Z,20.38
2023-04-17T15:53:38.431Z,21.84
2023-04-17T15:56:07.131Z,21.21
2023-04-17T15:58:35.857Z,22.52
2023-04-17T16:01:05.100Z,23.93
2023-04-17T16:03:33.133Z,24.54
2023-04-17T16:06:01.052Z,25.53
2023-04-17T16:08:28.848Z,24.98
2023-04-17T16:10:56.609Z,23.56
2023-04-17T16:13:24.440Z,23.32
2023-04-17T16:15:52.264Z,23.07
2023-04-17T16:18:21.650Z,21.94
2023-04-17T16:20:49.491Z,23.40
2023-04-17T16:23:17.933Z,22.88
2023-04-17T16:25:45.726Z,23.94
2023-04-17T16:28:13.496Z,23.96
2023-04-17T16:30:41.318Z,23.86
2023-04-17T16:33:09.265Z,24.02
2023-04-17T16:35:38.553Z,23.76
2023-04-17T16:38:06.406Z,24.05
2023-04-17T16:40:34.168Z,21.35
2023-04-17T16:43:02.012Z,21.35
2023-04-17T16:45:29.804Z,22.77
2023-04-17T16:47:57.742Z,22.04
2023-04-17T16:50:25.783Z,21.64
2023-04-17T16:52:55.039Z,21.32
2023-04-17T16:55:23.037Z,21.92
2023-04-17T16:57:50.837Z,20.56
2023-04-17T17:00:18.987Z,20.28
2023-04-17T17:02:46.921Z,20.48
2023-04-17T17:05:15.531Z,20.60
2023-04-17T17:07:43.447Z,20.19
2023-04-17T17:10:12.920Z,20.04
2023-04-17T17:12:40.801Z,18.38
2023-04-17T17:15:09.257Z,19.39
2023-04-17T17:17:37.887Z,19.31
2023-04-17T17:20:06.968Z,20.29
2023-04-17T17:22:34.752Z,20.48
2023-04-17T17:25:02.565Z,22.47
2023-04-17T17:27:31.702Z,22.51
2023-04-17T17:30:00.462Z,23.90
2023-04-17T17:32:28.768Z,23.18
2023-04-17T17:34:58.184Z,23.73
2023-04-17T17:37:27.426Z,23.84
2023-04-17T17:39:55.251Z,24.14
2023-04-17T17:42:23.083Z,24.85
2023-04-17T17:44:52.272Z,25.57
2023-04-17T17:47:20.061Z,24.51
2023-04-17T17:49:49.399Z,25.57
2023-04-17T17:52:17.266Z,26.07
2023-04-17T17:54:45.056Z,26.86
2023-04-17T17:57:12.890Z,27.30
2023-04-17T17:59:40.869Z,27.08
2023-04-17T18:02:10.342Z,28.06
2023-04-17T18:04:38.474Z,27.91
2023-04-17T18:07:08.136Z,27.62
2023-04-17T18:09:35.972Z,28.84
2023-04-17T18:12:03.961Z,28.63
2023-04-17T18:14:31.843Z,28.99
2023-04-17T18:16:59.686Z,28.99
2023-04-17T18:19:28.910Z,29.31
2023-04-17T18:21:56.752Z,28.83
2023-04-17T18:24:24.574Z,29.50
2023-04-17T18:26:52.472Z,30.19
2023-04-17T18:29:20.210Z,29.63
2023-04-17T18:31:48.131Z,30.03
2023-04-17T18:34:18.009Z,30.13
2023-04-17T18:36:47.206Z,29.61
2023-04-17T18:39:15.276Z,30.44
2023-04-17T18:41:43.067Z,30.63
2023-04-17T18:44:10.871Z,31.05
2023-04-17T18:46:38.768Z,31.43
2023-04-17T18:49:06.518Z,31.10
2023-04-17T18:51:34.269Z,31.86
2023-04-17T18:54:03.327Z,33.38
2023-04-17T18:56:31.086Z,32.78
2023-04-17T18:58:58.890Z,32.01
2023-04-17T19:01:26.643Z,32.83
2023-04-17T19:03:54.402Z,34.33
2023-04-17T19:06:22.274Z,32.89
2023-04-17T19:08:50.213Z,32.76
2023-04-17T19:11:19.585Z,33.23
2023-04-17T19:13:47.604Z,33.72
2023-04-17T19:16:15.451Z,34.03
2023-04-17T19:18:43.332Z,33.95
2023-04-17T19:21:11.221Z,35.41
2023-04-17T19:23:39.131Z,36.30
2023-04-17T19:26:07.031Z,36.70
2023-04-17T19:28:36.667Z,36.41
2023-04-17T19:31:04.626Z,36.76
2023-04-17T19:33:34.095Z,35.42
2023-04-17T19:36:03.398Z,36.63
2023-04-17T19:38:31.530Z,35.69
2023-04-17T19:41:14.427Z,36.40
2023-04-17T19:43:43.811Z,37.67
2023-04-17T19:46:11.881Z,37.36
2023-04-17T19:48:40.257Z,36.59
2023-04-17T19:51:08.165Z,36.26
2023-04-17T19:53:37.217Z,36.26
2023-04-17T19:56:08.300Z,37.05
2023-04-17T19:58:36.880Z,37.02
2023-04-17T20:01:06.494Z,37.02
2023-04-17T20:03:35.608Z,36.61
2023-04-17T20:06:03.649Z,37.09
2023-04-17T20:08:31.584Z,36.93
2023-04-17T20:10:59.479Z,37.32
2023-04-17T20:13:28.641Z,37.45
2023-04-17T20:15:56.618Z,37.34
2023-04-17T20:18:26.023Z,37.54
2023-04-17T20:20:53.871Z,37.44
2023-04-17T20:23:21.748Z,36.95
2023-04-17T20:25:50.442Z,37.35
2023-04-17T20:28:18.249Z,37.19
2023-04-17T20:30:46.117Z,37.11
2023-04-17T20:33:14.092Z,38.41
2023-04-17T20:35:43.394Z,37.36
2023-04-17T20:38:11.192Z,37.57
2023-04-17T20:40:39.350Z,37.59
2023-04-17T20:43:07.110Z,37.72
2023-04-17T20:45:34.904Z,37.59
2023-04-17T20:48:02.867Z,37.49
2023-04-17T20:50:30.702Z,37.62
2023-04-17T20:52:59.836Z,36.96
2023-04-17T20:55:27.780Z,37.32
2023-04-17T20:57:55.592Z,37.19
2023-04-17T21:00:23.460Z,37.44
2023-04-17T21:02:51.406Z,37.40
2023-04-17T21:05:19.840Z,37.98
2023-04-17T21:07:49.498Z,38.18
2023-04-17T21:10:20.885Z,38.40
2023-04-17T21:12:48.721Z,39.26
2023-04-17T21:15:16.644Z,38.60
2023-04-17T21:17:47.545Z,38.54
2023-04-17T21:20:15.530Z,38.72
2023-04-17T21:22:43.247Z,38.71
2023-04-17T21:25:11.298Z,38.57
2023-04-17T21:27:40.926Z,39.11
2023-04-17T21:30:19.594Z,39.85
2023-04-17T21:32:48.394Z,38.83
2023-04-17T21:35:16.241Z,39.08
2023-04-17T21:37:44.054Z,38.84
2023-04-17T21:40:12.805Z,39.06
2023-04-17T21:42:42.531Z,38.53
2023-04-17T21:45:11.941Z,38.34
2023-04-17T21:47:39.772Z,38.88
2023-04-17T21:50:09.440Z,38.68
2023-04-17T21:52:37.412Z,39.29
2023-04-17T21:55:07.668Z,38.17
2023-04-17T21:57:36.026Z,37.71
2023-04-17T22:00:06.288Z,37.41
2023-04-17T22:02:34.508Z,37.28
2023-04-17T22:05:02.309Z,37.72
2023-04-17T22:07:30.710Z,37.86
2023-04-17T22:10:01.677Z,37.04
2023-04-17T22:12:29.516Z,36.66
2023-04-17T22:14:57.269Z,37.31
2023-04-17T22:17:26.512Z,36.78
2023-04-17T22:19:55.787Z,37.24
2023-04-17T22:22:23.686Z,36.60
2023-04-17T22:24:51.526Z,37.04
2023-04-17T22:27:19.281Z,36.92
2023-04-17T22:29:47.072Z,36.94
2023-04-17T22:32:14.881Z,37.07
2023-04-17T22:34:48.448Z,37.55
2023-04-17T22:37:16.370Z,37.30
2023-04-17T22:39:44.149Z,37.39
2023-04-17T22:42:11.972Z,37.46
2023-04-17T22:44:39.816Z,37.75
2023-04-17T22:47:07.589Z,37.10
2023-04-17T22:49:38.024Z,38.13
2023-04-17T22:52:07.896Z,37.74
2023-04-17T22:54:35.765Z,37.58
2023-04-17T22:57:03.530Z,37.96
2023-04-17T22:59:31.298Z,38.29
2023-04-17T23:01:59.227Z,38.76
2023-04-17T23:04:27.097Z,38.20
2023-04-17T23:06:54.913Z,38.45
2023-04-17T23:09:24.038Z,39.29
2023-04-17T23:11:51.817Z,39.78
2023-04-17T23:14:19.594Z,39.58
2023-04-17T23:16:47.458Z,39.00
2023-04-17T23:19:15.256Z,39.62
2023-04-17T23:21:43.030Z,40.32
2023-04-17T23:24:11.640Z,40.06
2023-04-17T23:26:41.825Z,40.27
2023-04-17T23:29:09.661Z,42.49
2023-04-17T23:31:37.818Z,43.97
2023-04-17T23:34:05.714Z,46.08
2023-04-17T23:36:33.555Z,46.62
2023-04-17T23:39:01.305Z,45.91
2023-04-17T23:41:29.645Z,46.41
2023-04-17T23:43:58.770Z,46.10
2023-04-17T23:46:26.829Z,46.78
2023-04-17T23:48:54.641Z,45.87
2023-04-17T23:51:22.404Z,48.47
2023-04-17T23:53:50.648Z,49.86
2023-04-17T23:56:22.046Z,48.70
2023-04-17T23:58:49.862Z,49.33
